sensor_id;sensor_type;location;lat;lon;timestamp;temperature;humidity
10282;DHT22;5186;59.472;18.048;2023-05-07T00:02:02;1.50;99.90
10282;DHT22;5186;59.472;18.048;2023-05-07T00:04:29;1.50;99.90
10282;DHT22;5186;59.472;18.048;2023-05-07T00:07:01;1.50;99.90
10282;DHT22;5186;59.472;18.048;2023-05-07T00:09:26;1.40;99.90
10282;DHT22;5186;59.472;18.048;2023-05-07T00:11:52;1.40;99.90
10282;DHT22;5186;59.472;18.048;2023-05-07T00:14:18;1.40;99.90
10282;DHT22;5186;59.472;18.048;2023-05-07T00:16:44;1.40;99.90
10282;DHT22;5186;59.472;18.048;2023-05-07T00:19:09;1.30;99.90
10282;DHT22;5186;59.472;18.048;2023-05-07T00:21:35;1.30;99.90
10282;DHT22;5186;59.472;18.048;2023-05-07T00:24:01;1.30;99.90
10282;DHT22;5186;59.472;18.048;2023-05-07T00:26:26;1.20;99.90
10282;DHT22;5186;59.472;18.048;2023-05-07T00:28:52;1.20;99.90
10282;DHT22;5186;59.472;18.048;2023-05-07T00:31:18;1.20;99.90
10282;DHT22;5186;59.472;18.048;2023-05-07T00:33:43;1.20;99.90
10282;DHT22;5186;59.472;18.048;2023-05-07T00:36:09;1.10;99.90
10282;DHT22;5186;59.472;18.048;2023-05-07T00:38:34;1.10;99.90
10282;DHT22;5186;59.472;18.048;2023-05-07T00:41:00;1.00;99.90
10282;DHT22;5186;59.472;18.048;2023-05-07T00:43:27;1.00;99.90
10282;DHT22;5186;59.472;18.048;2023-05-07T00:45:53;1.00;99.90
10282;DHT22;5186;59.472;18.048;2023-05-07T00:48:19;1.00;99.90
10282;DHT22;5186;59.472;18.048;2023-05-07T00:50:45;0.90;99.90
10282;DHT22;5186;59.472;18.048;2023-05-07T00:53:12;0.90;99.90
10282;DHT22;5186;59.472;18.048;2023-05-07T00:55:38;0.90;99.90
10282;DHT22;5186;59.472;18.048;2023-05-07T00:58:04;0.90;99.90
10282;DHT22;5186;59.472;18.048;2023-05-07T01:00:30;0.80;99.90
10282;DHT22;5186;59.472;18.048;2023-05-07T01:05:32;0.70;99.90
10282;DHT22;5186;59.472;18.048;2023-05-07T01:07:58;0.70;99.90
10282;DHT22;5186;59.472;18.048;2023-05-07T01:10:24;0.70;99.90
10282;DHT22;5186;59.472;18.048;2023-05-07T01:12:50;0.70;99.90
10282;DHT22;5186;59.472;18.048;2023-05-07T01:15:16;0.60;99.90
10282;DHT22;5186;59.472;18.048;2023-05-07T01:17:43;0.60;99.90
10282;DHT22;5186;59.472;18.048;2023-05-07T01:20:09;0.60;99.90
10282;DHT22;5186;59.472;18.048;2023-05-07T01:22:38;0.60;99.90
10282;DHT22;5186;59.472;18.048;2023-05-07T01:25:05;0.50;99.90
10282;DHT22;5186;59.472;18.048;2023-05-07T01:27:31;0.50;99.90
10282;DHT22;5186;59.472;18.048;2023-05-07T01:29:59;0.50;99.90
10282;DHT22;5186;59.472;18.048;2023-05-07T01:32:33;0.50;99.90
10282;DHT22;5186;59.472;18.048;2023-05-07T01:35:03;0.50;99.90
10282;DHT22;5186;59.472;18.048;2023-05-07T01:37:30;0.40;99.90
10282;DHT22;5186;59.472;18.048;2023-05-07T01:39:56;0.40;99.90
10282;DHT22;5186;59.472;18.048;2023-05-07T01:42:23;0.40;99.90
10282;DHT22;5186;59.472;18.048;2023-05-07T01:44:48;0.30;99.90
10282;DHT22;5186;59.472;18.048;2023-05-07T01:47:14;0.30;99.90
10282;DHT22;5186;59.472;18.048;2023-05-07T01:49:42;0.30;99.90
10282;DHT22;5186;59.472;18.048;2023-05-07T01:52:09;0.30;99.90
10282;DHT22;5186;59.472;18.048;2023-05-07T01:54:35;0.30;99.90
10282;DHT22;5186;59.472;18.048;2023-05-07T01:57:01;0.30;99.90
10282;DHT22;5186;59.472;18.048;2023-05-07T01:59:26;0.20;99.90
10282;DHT22;5186;59.472;18.048;2023-05-07T02:01:52;0.20;99.90
10282;DHT22;5186;59.472;18.048;2023-05-07T02:04:17;0.20;99.90
10282;DHT22;5186;59.472;18.048;2023-05-07T02:06:43;0.20;99.90
10282;DHT22;5186;59.472;18.048;2023-05-07T02:09:09;0.20;99.90
10282;DHT22;5186;59.472;18.048;2023-05-07T02:11:35;0.20;99.90
10282;DHT22;5186;59.472;18.048;2023-05-07T02:14:00;0.10;99.90
10282;DHT22;5186;59.472;18.048;2023-05-07T02:16:26;0.10;99.90
10282;DHT22;5186;59.472;18.048;2023-05-07T02:18:52;0.00;99.90
10282;DHT22;5186;59.472;18.048;2023-05-07T02:21:17;0.00;99.90
10282;DHT22;5186;59.472;18.048;2023-05-07T02:23:43;0.00;99.90
10282;DHT22;5186;59.472;18.048;2023-05-07T02:26:08;0.00;99.90
10282;DHT22;5186;59.472;18.048;2023-05-07T02:28:34;0.00;99.90
10282;DHT22;5186;59.472;18.048;2023-05-07T02:31:03;0.00;99.90
10282;DHT22;5186;59.472;18.048;2023-05-07T02:33:29;-0.10;99.90
10282;DHT22;5186;59.472;18.048;2023-05-07T02:35:55;-0.10;99.90
10282;DHT22;5186;59.472;18.048;2023-05-07T02:38:21;-0.10;99.90
10282;DHT22;5186;59.472;18.048;2023-05-07T02:40:46;-0.10;99.90
10282;DHT22;5186;59.472;18.048;2023-05-07T02:43:12;-0.10;99.90
10282;DHT22;5186;59.472;18.048;2023-05-07T02:45:40;-0.20;99.90
10282;DHT22;5186;59.472;18.048;2023-05-07T02:48:06;-0.20;99.90
10282;DHT22;5186;59.472;18.048;2023-05-07T02:50:31;-0.10;99.90
10282;DHT22;5186;59.472;18.048;2023-05-07T02:52:58;-0.20;99.90
10282;DHT22;5186;59.472;18.048;2023-05-07T02:55:24;-0.20;99.90
10282;DHT22;5186;59.472;18.048;2023-05-07T02:57:49;-0.20;99.90
10282;DHT22;5186;59.472;18.048;2023-05-07T03:00:19;-0.20;99.90
10282;DHT22;5186;59.472;18.048;2023-05-07T03:02:45;-0.20;99.90
10282;DHT22;5186;59.472;18.048;2023-05-07T03:05:11;-0.20;99.90
10282;DHT22;5186;59.472;18.048;2023-05-07T03:07:37;-0.20;99.90
10282;DHT22;5186;59.472;18.048;2023-05-07T03:10:04;-0.20;99.90
10282;DHT22;5186;59.472;18.048;2023-05-07T03:12:30;-0.20;99.90
10282;DHT22;5186;59.472;18.048;2023-05-07T03:14:56;-0.20;99.90
10282;DHT22;5186;59.472;18.048;2023-05-07T03:17:22;-0.20;99.90
10282;DHT22;5186;59.472;18.048;2023-05-07T03:19:48;-0.20;99.90
10282;DHT22;5186;59.472;18.048;2023-05-07T03:22:14;-0.20;99.90
10282;DHT22;5186;59.472;18.048;2023-05-07T03:24:43;-0.20;99.90
10282;DHT22;5186;59.472;18.048;2023-05-07T03:27:09;-0.20;99.90
10282;DHT22;5186;59.472;18.048;2023-05-07T03:29:35;-0.20;99.90
10282;DHT22;5186;59.472;18.048;2023-05-07T03:32:00;-0.20;99.90
10282;DHT22;5186;59.472;18.048;2023-05-07T03:34:26;-0.20;99.90
10282;DHT22;5186;59.472;18.048;2023-05-07T03:36:52;-0.20;99.90
10282;DHT22;5186;59.472;18.048;2023-05-07T03:39:17;-0.20;99.90
10282;DHT22;5186;59.472;18.048;2023-05-07T03:41:43;-0.20;99.90
10282;DHT22;5186;59.472;18.048;2023-05-07T03:44:08;-0.20;99.90
10282;DHT22;5186;59.472;18.048;2023-05-07T03:46:34;-0.10;99.90
10282;DHT22;5186;59.472;18.048;2023-05-07T03:49:00;-0.10;99.90
10282;DHT22;5186;59.472;18.048;2023-05-07T03:51:26;-0.10;99.90
10282;DHT22;5186;59.472;18.048;2023-05-07T03:53:52;0.00;99.90
10282;DHT22;5186;59.472;18.048;2023-05-07T03:56:22;0.00;99.90
10282;DHT22;5186;59.472;18.048;2023-05-07T03:58:48;0.00;99.90
10282;DHT22;5186;59.472;18.048;2023-05-07T04:01:14;0.00;99.90
10282;DHT22;5186;59.472;18.048;2023-05-07T04:03:39;0.10;99.90
10282;DHT22;5186;59.472;18.048;2023-05-07T04:06:05;0.10;99.90
10282;DHT22;5186;59.472;18.048;2023-05-07T04:08:31;0.10;99.90
10282;DHT22;5186;59.472;18.048;2023-05-07T04:10:57;0.20;99.90
10282;DHT22;5186;59.472;18.048;2023-05-07T04:13:23;0.30;99.90
10282;DHT22;5186;59.472;18.048;2023-05-07T04:15:49;0.30;99.90
10282;DHT22;5186;59.472;18.048;2023-05-07T04:18:15;0.40;99.90
10282;DHT22;5186;59.472;18.048;2023-05-07T04:20:41;0.40;99.90
10282;DHT22;5186;59.472;18.048;2023-05-07T04:23:07;0.50;99.90
10282;DHT22;5186;59.472;18.048;2023-05-07T04:25:33;0.60;99.90
10282;DHT22;5186;59.472;18.048;2023-05-07T04:27:58;0.60;99.90
10282;DHT22;5186;59.472;18.048;2023-05-07T04:30:24;0.70;99.90
10282;DHT22;5186;59.472;18.048;2023-05-07T04:32:50;0.80;99.90
10282;DHT22;5186;59.472;18.048;2023-05-07T04:35:16;0.90;99.90
10282;DHT22;5186;59.472;18.048;2023-05-07T04:37:42;0.90;99.90
10282;DHT22;5186;59.472;18.048;2023-05-07T04:40:08;1.00;99.90
10282;DHT22;5186;59.472;18.048;2023-05-07T04:42:34;1.10;99.90
10282;DHT22;5186;59.472;18.048;2023-05-07T04:45:01;1.20;99.90
10282;DHT22;5186;59.472;18.048;2023-05-07T04:47:27;1.30;99.90
10282;DHT22;5186;59.472;18.048;2023-05-07T04:49:52;1.30;99.90
10282;DHT22;5186;59.472;18.048;2023-05-07T04:52:18;1.50;99.90
10282;DHT22;5186;59.472;18.048;2023-05-07T04:54:44;1.50;99.90
10282;DHT22;5186;59.472;18.048;2023-05-07T04:57:09;1.60;99.90
10282;DHT22;5186;59.472;18.048;2023-05-07T04:59:35;1.70;99.90
10282;DHT22;5186;59.472;18.048;2023-05-07T05:02:02;1.80;99.90
10282;DHT22;5186;59.472;18.048;2023-05-07T05:04:29;1.90;99.90
10282;DHT22;5186;59.472;18.048;2023-05-07T05:06:58;2.00;99.90
10282;DHT22;5186;59.472;18.048;2023-05-07T05:09:23;2.10;99.90
10282;DHT22;5186;59.472;18.048;2023-05-07T05:11:49;2.20;99.90
10282;DHT22;5186;59.472;18.048;2023-05-07T05:14:15;2.40;99.90
10282;DHT22;5186;59.472;18.048;2023-05-07T05:16:40;2.50;99.90
10282;DHT22;5186;59.472;18.048;2023-05-07T05:19:07;2.70;99.90
10282;DHT22;5186;59.472;18.048;2023-05-07T05:21:33;2.80;99.90
10282;DHT22;5186;59.472;18.048;2023-05-07T05:24:01;2.90;99.90
10282;DHT22;5186;59.472;18.048;2023-05-07T05:26:26;3.00;99.90
10282;DHT22;5186;59.472;18.048;2023-05-07T05:28:54;3.20;99.90
10282;DHT22;5186;59.472;18.048;2023-05-07T05:31:20;3.30;99.90
10282;DHT22;5186;59.472;18.048;2023-05-07T05:33:45;3.50;99.90
10282;DHT22;5186;59.472;18.048;2023-05-07T05:36:11;3.60;99.90
10282;DHT22;5186;59.472;18.048;2023-05-07T05:38:38;3.80;99.90
10282;DHT22;5186;59.472;18.048;2023-05-07T05:41:04;3.90;99.90
10282;DHT22;5186;59.472;18.048;2023-05-07T05:43:30;4.00;99.90
10282;DHT22;5186;59.472;18.048;2023-05-07T05:45:56;4.10;99.90
10282;DHT22;5186;59.472;18.048;2023-05-07T05:48:22;4.20;99.90
10282;DHT22;5186;59.472;18.048;2023-05-07T05:50:48;4.40;99.90
10282;DHT22;5186;59.472;18.048;2023-05-07T05:53:13;4.50;99.90
10282;DHT22;5186;59.472;18.048;2023-05-07T05:55:39;4.60;99.90
10282;DHT22;5186;59.472;18.048;2023-05-07T05:58:05;4.70;99.90
10282;DHT22;5186;59.472;18.048;2023-05-07T06:00:33;4.80;99.90
10282;DHT22;5186;59.472;18.048;2023-05-07T06:02:58;5.00;99.90
10282;DHT22;5186;59.472;18.048;2023-05-07T06:05:24;5.00;99.90
10282;DHT22;5186;59.472;18.048;2023-05-07T06:07:50;5.10;99.90
10282;DHT22;5186;59.472;18.048;2023-05-07T06:10:15;5.20;99.90
10282;DHT22;5186;59.472;18.048;2023-05-07T06:12:41;5.40;99.90
10282;DHT22;5186;59.472;18.048;2023-05-07T06:15:07;5.50;99.90
10282;DHT22;5186;59.472;18.048;2023-05-07T06:17:33;5.60;99.90
10282;DHT22;5186;59.472;18.048;2023-05-07T06:19:59;5.60;99.90
10282;DHT22;5186;59.472;18.048;2023-05-07T06:22:24;5.70;99.90
10282;DHT22;5186;59.472;18.048;2023-05-07T06:24:50;5.80;99.90
10282;DHT22;5186;59.472;18.048;2023-05-07T06:27:16;5.90;99.90
10282;DHT22;5186;59.472;18.048;2023-05-07T06:29:41;5.90;99.90
10282;DHT22;5186;59.472;18.048;2023-05-07T06:32:12;6.00;99.90
10282;DHT22;5186;59.472;18.048;2023-05-07T06:34:39;6.10;99.90
10282;DHT22;5186;59.472;18.048;2023-05-07T06:37:05;6.20;99.90
10282;DHT22;5186;59.472;18.048;2023-05-07T06:39:32;6.20;99.90
10282;DHT22;5186;59.472;18.048;2023-05-07T06:41:58;6.30;99.90
10282;DHT22;5186;59.472;18.048;2023-05-07T06:44:24;6.40;99.90
10282;DHT22;5186;59.472;18.048;2023-05-07T06:46:49;6.40;99.90
10282;DHT22;5186;59.472;18.048;2023-05-07T06:49:15;6.50;99.90
10282;DHT22;5186;59.472;18.048;2023-05-07T06:51:41;6.50;99.90
10282;DHT22;5186;59.472;18.048;2023-05-07T06:54:06;6.60;99.90
10282;DHT22;5186;59.472;18.048;2023-05-07T06:56:33;6.70;99.90
10282;DHT22;5186;59.472;18.048;2023-05-07T06:59:02;6.80;99.90
10282;DHT22;5186;59.472;18.048;2023-05-07T07:01:28;6.80;99.90
10282;DHT22;5186;59.472;18.048;2023-05-07T07:03:54;6.90;99.90
10282;DHT22;5186;59.472;18.048;2023-05-07T07:06:20;6.90;99.90
10282;DHT22;5186;59.472;18.048;2023-05-07T07:08:45;7.00;99.90
10282;DHT22;5186;59.472;18.048;2023-05-07T07:11:11;7.10;99.90
10282;DHT22;5186;59.472;18.048;2023-05-07T07:13:37;7.20;99.90
10282;DHT22;5186;59.472;18.048;2023-05-07T07:16:02;7.20;99.90
10282;DHT22;5186;59.472;18.048;2023-05-07T07:18:28;7.30;99.90
10282;DHT22;5186;59.472;18.048;2023-05-07T07:20:54;7.40;99.90
10282;DHT22;5186;59.472;18.048;2023-05-07T07:23:20;7.40;99.90
10282;DHT22;5186;59.472;18.048;2023-05-07T07:25:46;7.50;99.90
10282;DHT22;5186;59.472;18.048;2023-05-07T07:28:11;7.60;99.90
10282;DHT22;5186;59.472;18.048;2023-05-07T07:30:38;7.70;99.90
10282;DHT22;5186;59.472;18.048;2023-05-07T07:33:03;7.80;99.90
10282;DHT22;5186;59.472;18.048;2023-05-07T07:35:30;7.90;99.90
10282;DHT22;5186;59.472;18.048;2023-05-07T07:37:56;8.00;99.90
10282;DHT22;5186;59.472;18.048;2023-05-07T07:40:22;8.00;99.90
10282;DHT22;5186;59.472;18.048;2023-05-07T07:42:48;8.10;99.90
10282;DHT22;5186;59.472;18.048;2023-05-07T07:45:13;8.20;99.90
10282;DHT22;5186;59.472;18.048;2023-05-07T07:47:39;8.20;99.90
10282;DHT22;5186;59.472;18.048;2023-05-07T07:50:06;8.20;99.90
10282;DHT22;5186;59.472;18.048;2023-05-07T07:52:32;8.30;99.90
10282;DHT22;5186;59.472;18.048;2023-05-07T07:54:58;8.30;99.90
10282;DHT22;5186;59.472;18.048;2023-05-07T07:57:23;8.40;99.90
10282;DHT22;5186;59.472;18.048;2023-05-07T07:59:49;8.40;99.90
10282;DHT22;5186;59.472;18.048;2023-05-07T08:02:16;8.50;99.90
10282;DHT22;5186;59.472;18.048;2023-05-07T08:04:42;8.50;99.90
10282;DHT22;5186;59.472;18.048;2023-05-07T08:07:11;8.60;99.90
10282;DHT22;5186;59.472;18.048;2023-05-07T08:09:37;8.60;99.90
10282;DHT22;5186;59.472;18.048;2023-05-07T08:12:04;8.60;99.90
10282;DHT22;5186;59.472;18.048;2023-05-07T08:14:30;8.60;99.90
10282;DHT22;5186;59.472;18.048;2023-05-07T08:16:58;8.70;99.90
10282;DHT22;5186;59.472;18.048;2023-05-07T08:19:26;8.70;99.90
10282;DHT22;5186;59.472;18.048;2023-05-07T08:21:52;8.80;99.90
10282;DHT22;5186;59.472;18.048;2023-05-07T08:24:18;8.90;99.90
10282;DHT22;5186;59.472;18.048;2023-05-07T08:26:44;8.90;99.90
10282;DHT22;5186;59.472;18.048;2023-05-07T08:29:10;8.90;99.90
10282;DHT22;5186;59.472;18.048;2023-05-07T08:31:36;8.90;99.90
10282;DHT22;5186;59.472;18.048;2023-05-07T08:34:02;8.90;99.90
10282;DHT22;5186;59.472;18.048;2023-05-07T08:36:28;8.90;99.90
10282;DHT22;5186;59.472;18.048;2023-05-07T08:38:54;9.00;99.90
10282;DHT22;5186;59.472;18.048;2023-05-07T08:41:20;9.10;99.90
10282;DHT22;5186;59.472;18.048;2023-05-07T08:43:48;9.10;99.90
10282;DHT22;5186;59.472;18.048;2023-05-07T08:46:20;9.20;99.90
10282;DHT22;5186;59.472;18.048;2023-05-07T08:48:48;9.20;99.90
10282;DHT22;5186;59.472;18.048;2023-05-07T08:51:19;9.30;99.90
10282;DHT22;5186;59.472;18.048;2023-05-07T08:53:46;9.30;99.90
10282;DHT22;5186;59.472;18.048;2023-05-07T08:56:14;9.30;99.90
10282;DHT22;5186;59.472;18.048;2023-05-07T08:58:41;9.40;99.90
10282;DHT22;5186;59.472;18.048;2023-05-07T09:01:08;9.50;99.90
10282;DHT22;5186;59.472;18.048;2023-05-07T09:03:36;9.60;99.90
10282;DHT22;5186;59.472;18.048;2023-05-07T09:06:02;9.60;99.90
10282;DHT22;5186;59.472;18.048;2023-05-07T09:08:28;9.70;99.90
10282;DHT22;5186;59.472;18.048;2023-05-07T09:10:53;9.80;99.90
10282;DHT22;5186;59.472;18.048;2023-05-07T09:13:19;9.80;99.90
10282;DHT22;5186;59.472;18.048;2023-05-07T09:15:45;9.90;99.90
10282;DHT22;5186;59.472;18.048;2023-05-07T09:18:12;10.00;99.90
10282;DHT22;5186;59.472;18.048;2023-05-07T09:20:39;10.00;99.90
10282;DHT22;5186;59.472;18.048;2023-05-07T09:23:06;10.00;99.90
10282;DHT22;5186;59.472;18.048;2023-05-07T09:25:34;10.10;99.90
10282;DHT22;5186;59.472;18.048;2023-05-07T09:28:00;10.20;99.90
10282;DHT22;5186;59.472;18.048;2023-05-07T09:30:30;10.30;99.90
10282;DHT22;5186;59.472;18.048;2023-05-07T09:32:58;10.30;99.90
10282;DHT22;5186;59.472;18.048;2023-05-07T09:35:26;10.40;99.90
10282;DHT22;5186;59.472;18.048;2023-05-07T09:37:57;10.40;99.90
10282;DHT22;5186;59.472;18.048;2023-05-07T09:40:24;10.40;99.90
10282;DHT22;5186;59.472;18.048;2023-05-07T09:42:52;10.50;99.90
10282;DHT22;5186;59.472;18.048;2023-05-07T09:47:48;10.60;99.90
10282;DHT22;5186;59.472;18.048;2023-05-07T09:50:15;10.60;99.90
10282;DHT22;5186;59.472;18.048;2023-05-07T09:52:42;10.60;99.90
10282;DHT22;5186;59.472;18.048;2023-05-07T09:55:08;10.60;99.90
10282;DHT22;5186;59.472;18.048;2023-05-07T09:57:36;10.60;99.90
10282;DHT22;5186;59.472;18.048;2023-05-07T10:00:02;10.70;99.90
10282;DHT22;5186;59.472;18.048;2023-05-07T10:02:31;10.80;99.90
10282;DHT22;5186;59.472;18.048;2023-05-07T10:05:02;10.90;99.90
10282;DHT22;5186;59.472;18.048;2023-05-07T10:07:29;10.90;99.90
10282;DHT22;5186;59.472;18.048;2023-05-07T10:09:55;11.00;99.90
10282;DHT22;5186;59.472;18.048;2023-05-07T10:12:21;11.10;99.90
10282;DHT22;5186;59.472;18.048;2023-05-07T10:14:47;11.00;99.90
10282;DHT22;5186;59.472;18.048;2023-05-07T10:17:16;11.10;99.90
10282;DHT22;5186;59.472;18.048;2023-05-07T10:19:44;11.00;99.90
10282;DHT22;5186;59.472;18.048;2023-05-07T10:22:11;11.00;99.90
10282;DHT22;5186;59.472;18.048;2023-05-07T10:24:39;10.90;99.90
10282;DHT22;5186;59.472;18.048;2023-05-07T10:27:08;10.90;99.90
10282;DHT22;5186;59.472;18.048;2023-05-07T10:32:13;11.00;99.90
10282;DHT22;5186;59.472;18.048;2023-05-07T10:34:45;11.00;99.90
10282;DHT22;5186;59.472;18.048;2023-05-07T10:37:12;11.20;99.90
10282;DHT22;5186;59.472;18.048;2023-05-07T10:39:37;11.20;99.90
10282;DHT22;5186;59.472;18.048;2023-05-07T10:42:10;11.30;99.90
10282;DHT22;5186;59.472;18.048;2023-05-07T10:44:36;11.40;99.90
10282;DHT22;5186;59.472;18.048;2023-05-07T10:47:13;11.40;99.90
10282;DHT22;5186;59.472;18.048;2023-05-07T10:52:22;11.40;99.90
10282;DHT22;5186;59.472;18.048;2023-05-07T10:57:42;11.40;99.90
10282;DHT22;5186;59.472;18.048;2023-05-07T11:03:06;11.60;99.90
10282;DHT22;5186;59.472;18.048;2023-05-07T11:05:33;11.60;99.90
10282;DHT22;5186;59.472;18.048;2023-05-07T11:08:00;11.70;99.90
10282;DHT22;5186;59.472;18.048;2023-05-07T11:10:55;11.70;99.90
10282;DHT22;5186;59.472;18.048;2023-05-07T11:13:41;11.80;99.90
10282;DHT22;5186;59.472;18.048;2023-05-07T11:16:25;11.90;99.90
10282;DHT22;5186;59.472;18.048;2023-05-07T11:18:55;12.00;99.90
10282;DHT22;5186;59.472;18.048;2023-05-07T11:21:50;12.00;99.90
10282;DHT22;5186;59.472;18.048;2023-05-07T11:24:16;12.10;99.90
10282;DHT22;5186;59.472;18.048;2023-05-07T11:26:47;12.20;99.90
10282;DHT22;5186;59.472;18.048;2023-05-07T11:29:18;12.20;99.90
10282;DHT22;5186;59.472;18.048;2023-05-07T11:31:44;12.20;99.90
10282;DHT22;5186;59.472;18.048;2023-05-07T11:34:14;12.30;99.90
10282;DHT22;5186;59.472;18.048;2023-05-07T11:36:42;12.30;99.90
10282;DHT22;5186;59.472;18.048;2023-05-07T11:39:24;12.30;99.90
10282;DHT22;5186;59.472;18.048;2023-05-07T11:41:50;12.40;99.90
10282;DHT22;5186;59.472;18.048;2023-05-07T11:44:16;12.50;99.90
10282;DHT22;5186;59.472;18.048;2023-05-07T11:46:43;12.60;99.90
10282;DHT22;5186;59.472;18.048;2023-05-07T11:49:10;12.60;99.90
10282;DHT22;5186;59.472;18.048;2023-05-07T11:51:36;12.60;99.90
10282;DHT22;5186;59.472;18.048;2023-05-07T11:54:04;12.60;99.90
10282;DHT22;5186;59.472;18.048;2023-05-07T11:56:34;12.60;99.90
10282;DHT22;5186;59.472;18.048;2023-05-07T11:59:01;12.70;99.90
10282;DHT22;5186;59.472;18.048;2023-05-07T12:01:26;12.70;99.90
10282;DHT22;5186;59.472;18.048;2023-05-07T12:03:52;12.80;99.90
10282;DHT22;5186;59.472;18.048;2023-05-07T12:06:18;12.80;99.90
10282;DHT22;5186;59.472;18.048;2023-05-07T12:08:45;12.90;99.90
10282;DHT22;5186;59.472;18.048;2023-05-07T12:11:16;12.90;99.90
10282;DHT22;5186;59.472;18.048;2023-05-07T12:13:44;12.90;99.90
10282;DHT22;5186;59.472;18.048;2023-05-07T12:16:10;13.00;99.90
10282;DHT22;5186;59.472;18.048;2023-05-07T12:18:36;13.00;99.90
10282;DHT22;5186;59.472;18.048;2023-05-07T12:21:04;13.00;99.90
10282;DHT22;5186;59.472;18.048;2023-05-07T12:23:30;13.00;99.90
10282;DHT22;5186;59.472;18.048;2023-05-07T12:25:56;13.00;99.90
10282;DHT22;5186;59.472;18.048;2023-05-07T12:28:22;13.00;99.90
10282;DHT22;5186;59.472;18.048;2023-05-07T12:30:48;13.00;99.90
10282;DHT22;5186;59.472;18.048;2023-05-07T12:33:25;13.10;99.90
10282;DHT22;5186;59.472;18.048;2023-05-07T12:35:53;13.20;99.90
10282;DHT22;5186;59.472;18.048;2023-05-07T12:38:19;13.10;99.90
10282;DHT22;5186;59.472;18.048;2023-05-07T12:40:50;13.20;99.90
10282;DHT22;5186;59.472;18.048;2023-05-07T12:43:27;13.20;99.90
10282;DHT22;5186;59.472;18.048;2023-05-07T12:45:57;13.20;99.90
10282;DHT22;5186;59.472;18.048;2023-05-07T12:48:25;13.30;99.90
10282;DHT22;5186;59.472;18.048;2023-05-07T12:50:56;13.30;99.90
10282;DHT22;5186;59.472;18.048;2023-05-07T12:53:24;13.30;99.90
10282;DHT22;5186;59.472;18.048;2023-05-07T12:55:52;13.30;99.90
10282;DHT22;5186;59.472;18.048;2023-05-07T13:00:50;13.30;99.90
10282;DHT22;5186;59.472;18.048;2023-05-07T13:03:23;13.40;99.90
10282;DHT22;5186;59.472;18.048;2023-05-07T13:05:49;13.40;99.90
10282;DHT22;5186;59.472;18.048;2023-05-07T13:10:55;13.50;98.90
10282;DHT22;5186;59.472;18.048;2023-05-07T13:13:21;13.60;99.90
10282;DHT22;5186;59.472;18.048;2023-05-07T13:15:47;13.60;99.50
10282;DHT22;5186;59.472;18.048;2023-05-07T13:18:13;13.70;99.10
10282;DHT22;5186;59.472;18.048;2023-05-07T13:20:38;13.60;97.40
10282;DHT22;5186;59.472;18.048;2023-05-07T13:23:04;13.60;97.30
10282;DHT22;5186;59.472;18.048;2023-05-07T13:25:30;13.60;97.30
10282;DHT22;5186;59.472;18.048;2023-05-07T13:27:58;13.70;97.40
10282;DHT22;5186;59.472;18.048;2023-05-07T13:30:24;13.80;97.30
10282;DHT22;5186;59.472;18.048;2023-05-07T13:32:50;13.70;96.10
10282;DHT22;5186;59.472;18.048;2023-05-07T13:35:17;13.70;95.90
10282;DHT22;5186;59.472;18.048;2023-05-07T13:37:43;13.60;95.90
10282;DHT22;5186;59.472;18.048;2023-05-07T13:40:09;13.70;95.70
10282;DHT22;5186;59.472;18.048;2023-05-07T13:42:34;13.80;95.70
10282;DHT22;5186;59.472;18.048;2023-05-07T13:45:00;13.80;95.70
10282;DHT22;5186;59.472;18.048;2023-05-07T13:47:28;13.80;95.50
10282;DHT22;5186;59.472;18.048;2023-05-07T13:49:53;13.90;95.80
10282;DHT22;5186;59.472;18.048;2023-05-07T13:52:21;13.90;95.50
10282;DHT22;5186;59.472;18.048;2023-05-07T13:54:47;14.00;95.20
10282;DHT22;5186;59.472;18.048;2023-05-07T13:57:13;14.10;95.50
10282;DHT22;5186;59.472;18.048;2023-05-07T13:59:38;14.20;96.00
10282;DHT22;5186;59.472;18.048;2023-05-07T14:02:04;14.10;95.90
10282;DHT22;5186;59.472;18.048;2023-05-07T14:04:30;14.10;96.20
10282;DHT22;5186;59.472;18.048;2023-05-07T14:06:56;14.10;96.60
10282;DHT22;5186;59.472;18.048;2023-05-07T14:09:21;14.10;96.80
10282;DHT22;5186;59.472;18.048;2023-05-07T14:11:47;14.10;96.70
10282;DHT22;5186;59.472;18.048;2023-05-07T14:14:17;14.00;96.50
10282;DHT22;5186;59.472;18.048;2023-05-07T14:16:42;13.90;96.60
10282;DHT22;5186;59.472;18.048;2023-05-07T14:19:08;14.00;97.10
10282;DHT22;5186;59.472;18.048;2023-05-07T14:21:34;14.00;97.10
10282;DHT22;5186;59.472;18.048;2023-05-07T14:24:00;14.00;97.00
10282;DHT22;5186;59.472;18.048;2023-05-07T14:26:28;14.10;97.10
10282;DHT22;5186;59.472;18.048;2023-05-07T14:28:54;14.00;97.00
10282;DHT22;5186;59.472;18.048;2023-05-07T14:31:22;13.80;96.90
10282;DHT22;5186;59.472;18.048;2023-05-07T14:33:48;14.00;97.60
10282;DHT22;5186;59.472;18.048;2023-05-07T14:36:15;14.10;97.60
10282;DHT22;5186;59.472;18.048;2023-05-07T14:38:41;14.10;97.50
10282;DHT22;5186;59.472;18.048;2023-05-07T14:41:06;14.20;97.60
10282;DHT22;5186;59.472;18.048;2023-05-07T14:43:32;14.10;97.40
10282;DHT22;5186;59.472;18.048;2023-05-07T14:46:00;14.00;97.40
10282;DHT22;5186;59.472;18.048;2023-05-07T14:48:28;14.00;97.70
10282;DHT22;5186;59.472;18.048;2023-05-07T14:50:54;14.20;97.90
10282;DHT22;5186;59.472;18.048;2023-05-07T14:53:19;14.30;97.90
10282;DHT22;5186;59.472;18.048;2023-05-07T14:55:46;14.30;97.90
10282;DHT22;5186;59.472;18.048;2023-05-07T14:58:12;14.30;97.90
10282;DHT22;5186;59.472;18.048;2023-05-07T15:00:38;14.40;97.70
10282;DHT22;5186;59.472;18.048;2023-05-07T15:03:08;14.30;97.50
10282;DHT22;5186;59.472;18.048;2023-05-07T15:05:34;14.30;97.80
10282;DHT22;5186;59.472;18.048;2023-05-07T15:08:00;14.40;98.10
10282;DHT22;5186;59.472;18.048;2023-05-07T15:10:26;14.50;98.00
10282;DHT22;5186;59.472;18.048;2023-05-07T15:12:51;14.40;97.60
10282;DHT22;5186;59.472;18.048;2023-05-07T15:15:17;14.20;97.80
10282;DHT22;5186;59.472;18.048;2023-05-07T15:17:43;14.40;97.90
10282;DHT22;5186;59.472;18.048;2023-05-07T15:20:08;14.50;98.00
10282;DHT22;5186;59.472;18.048;2023-05-07T15:22:35;14.50;98.10
10282;DHT22;5186;59.472;18.048;2023-05-07T15:25:03;14.50;98.30
10282;DHT22;5186;59.472;18.048;2023-05-07T15:27:29;14.40;98.20
10282;DHT22;5186;59.472;18.048;2023-05-07T15:29:57;14.50;98.30
10282;DHT22;5186;59.472;18.048;2023-05-07T15:32:26;14.50;98.30
10282;DHT22;5186;59.472;18.048;2023-05-07T15:34:51;14.50;98.30
10282;DHT22;5186;59.472;18.048;2023-05-07T15:37:19;14.50;98.40
10282;DHT22;5186;59.472;18.048;2023-05-07T15:39:45;14.50;98.40
10282;DHT22;5186;59.472;18.048;2023-05-07T15:42:10;14.40;98.40
10282;DHT22;5186;59.472;18.048;2023-05-07T15:44:38;14.40;98.40
10282;DHT22;5186;59.472;18.048;2023-05-07T15:47:04;14.30;98.40
10282;DHT22;5186;59.472;18.048;2023-05-07T15:49:30;14.30;98.40
10282;DHT22;5186;59.472;18.048;2023-05-07T15:51:59;14.20;98.30
10282;DHT22;5186;59.472;18.048;2023-05-07T15:54:24;14.30;98.40
10282;DHT22;5186;59.472;18.048;2023-05-07T15:56:50;14.30;98.30